Time;durP1;ratioP1;P1;durP2;ratioP2;P2;SDS_P1;SDS_P2;PMS_P1;PMS_P2;Temp;Humidity;BMP_temperature;BMP_pressure;BME280_temperature;BME280_humidity;BME280_pressure;Samples;Min_cycle;Max_cycle;Signal;HPM_P1;HPM_P2
2023/09/27 00:00:42;;;;;;;;;;;;;;;13.94;77.38;100982.97;4973567;28;2120;-79
2023/09/27 00:03:34;;;;;;;;;;;;;;;13.94;77.60;100977.56;4965938;28;2215;-79
2023/09/27 00:06:25;;;;;;;;;;;;;;;13.94;77.45;100974.00;4972745;28;2037;-79
2023/09/27 00:09:17;;;;;;;;;;;;;;;13.94;77.46;100974.00;4972143;28;1963;-78
2023/09/27 00:12:09;;;;;;;;;;;;;;;13.94;77.54;100982.13;4972669;28;2486;-79
2023/09/27 00:15:01;;;;;;;;;;;;;;;13.93;77.48;100978.59;4966780;28;2249;-79
2023/09/27 00:17:54;;;;;;;;;;;;;;;13.93;77.55;100975.88;4973593;28;2181;-79
2023/09/27 00:20:46;;;;;;;;;;;;;;;13.93;77.60;100970.47;4973479;28;2110;-78
2023/09/27 00:23:38;;;;;;;;;;;;;;;13.93;77.33;100980.47;4971411;28;2219;-79
2023/09/27 00:26:30;;;;;;;;;;;;;;;13.93;77.37;100980.47;4969768;28;2235;-79
2023/09/27 00:29:22;;;;;;;;;;;;;;;13.92;77.50;100976.13;4972790;28;2030;-78
2023/09/27 00:32:13;;;;;;;;;;;;;;;13.93;77.47;100978.59;4967610;28;2129;-79
2023/09/27 00:35:05;;;;;;;;;;;;;;;13.91;77.32;100975.28;4963277;28;2230;-79
2023/09/27 00:37:58;;;;;;;;;;;;;;;13.92;77.54;100971.53;4975947;28;1922;-80
2023/09/27 00:40:50;;;;;;;;;;;;;;;13.92;77.36;100963.41;4975717;28;2305;-78
2023/09/27 00:43:42;;;;;;;;;;;;;;;13.92;77.44;100970.72;4968815;28;2213;-79
2023/09/27 00:46:34;;;;;;;;;;;;;;;13.92;77.34;100965.31;4969257;28;2029;-78
2023/09/27 00:49:26;;;;;;;;;;;;;;;13.91;77.59;100964.44;4972540;28;2546;-79
2023/09/27 00:52:18;;;;;;;;;;;;;;;13.91;77.38;100963.63;4972756;28;2306;-79
2023/09/27 00:55:10;;;;;;;;;;;;;;;13.90;77.29;100954.69;4971038;28;2090;-78
2023/09/27 00:58:02;;;;;;;;;;;;;;;13.90;77.32;100953.88;4974844;28;2271;-79
2023/09/27 01:00:54;;;;;;;;;;;;;;;13.90;77.38;100953.88;4965197;28;2567;-77
2023/09/27 01:03:46;;;;;;;;;;;;;;;13.89;77.48;100957.66;4969527;28;2101;-79
2023/09/27 01:06:38;;;;;;;;;;;;;;;13.89;77.28;100961.16;4973080;28;2502;-78
2023/09/27 01:09:29;;;;;;;;;;;;;;;13.90;77.45;100951.16;4976031;28;1971;-78
2023/09/27 01:12:21;;;;;;;;;;;;;;;13.88;77.28;100951.38;4967067;28;2159;-78
2023/09/27 01:15:13;;;;;;;;;;;;;;;13.89;77.41;100950.34;4972668;28;2505;-78
2023/09/27 01:18:05;;;;;;;;;;;;;;;13.88;77.25;100948.66;4973500;28;2109;-78
2023/09/27 01:20:57;;;;;;;;;;;;;;;13.88;77.42;100945.13;4970026;28;1995;-79
2023/09/27 01:23:49;;;;;;;;;;;;;;;13.88;77.38;100937.84;4966344;28;2081;-79
2023/09/27 01:26:41;;;;;;;;;;;;;;;13.88;77.19;100924.31;4970476;28;2081;-79
2023/09/27 01:29:33;;;;;;;;;;;;;;;13.87;77.20;100917.25;4970813;28;2340;-79
2023/09/27 01:32:25;;;;;;;;;;;;;;;13.86;77.22;100911.00;4973690;28;2466;-79
2023/09/27 01:35:17;;;;;;;;;;;;;;;13.88;77.23;100910.75;4972519;28;2487;-77
2023/09/27 01:38:09;;;;;;;;;;;;;;;13.86;77.21;100905.59;4964545;28;3940;-78
2023/09/27 01:41:01;;;;;;;;;;;;;;;13.87;77.38;100903.72;4961799;28;2030;-77
2023/09/27 01:43:53;;;;;;;;;;;;;;;13.86;77.17;100911.00;4961166;28;2318;-77
2023/09/27 01:46:45;;;;;;;;;;;;;;;13.86;77.33;100911.00;4967378;28;2098;-78
2023/09/27 01:49:37;;;;;;;;;;;;;;;13.86;77.15;100902.06;4970602;28;2125;-79
2023/09/27 01:52:29;;;;;;;;;;;;;;;13.84;77.21;100888.75;4963794;28;2221;-79
2023/09/27 01:55:21;;;;;;;;;;;;;;;13.86;77.31;100886.66;4971183;28;2045;-79
2023/09/27 01:58:13;;;;;;;;;;;;;;;13.84;77.27;100877.91;4969620;28;2132;-79
2023/09/27 02:01:05;;;;;;;;;;;;;;;13.85;77.39;100878.75;4970513;28;2113;-78
2023/09/27 02:03:57;;;;;;;;;;;;;;;13.84;77.17;100871.69;4973227;28;2128;-77
2023/09/27 02:06:49;;;;;;;;;;;;;;;13.84;77.22;100866.28;4971421;28;1987;-78
2023/09/27 02:09:41;;;;;;;;;;;;;;;13.84;77.28;100860.88;4969742;28;3512;-77
2023/09/27 02:12:33;;;;;;;;;;;;;;;13.84;77.26;100858.97;4963975;28;2157;-77
2023/09/27 02:15:25;;;;;;;;;;;;;;;13.83;77.24;100860.03;4970579;28;2423;-79
2023/09/27 02:18:17;;;;;;;;;;;;;;;13.84;77.27;100868.97;4972073;28;1928;-77
2023/09/27 02:21:09;;;;;;;;;;;;;;;13.83;77.27;100868.16;4966626;28;2200;-77
2023/09/27 02:24:01;;;;;;;;;;;;;;;13.83;77.21;100867.34;4972462;28;2034;-78
2023/09/27 02:26:53;;;;;;;;;;;;;;;13.82;77.11;100861.13;4970090;28;2196;-78
2023/09/27 02:29:45;;;;;;;;;;;;;;;13.82;77.20;100855.69;4965844;28;2326;-78
2023/09/27 02:32:36;;;;;;;;;;;;;;;13.83;77.19;100859.22;4973312;28;1968;-80
2023/09/27 02:35:28;;;;;;;;;;;;;;;13.83;77.08;100860.03;4967746;28;1950;-78
2023/09/27 02:38:19;;;;;;;;;;;;;;;13.82;77.05;100847.56;4966646;28;2130;-77
2023/09/27 02:41:11;;;;;;;;;;;;;;;13.82;77.00;100849.44;4967024;28;2271;-78
2023/09/27 02:44:03;;;;;;;;;;;;;;;13.82;77.21;100854.84;4966806;28;2078;-77
2023/09/27 02:46:55;;;;;;;;;;;;;;;13.82;77.16;100855.69;4961476;28;2526;-76
2023/09/27 02:49:47;;;;;;;;;;;;;;;13.82;77.04;100844.88;4963109;28;4696;-76
2023/09/27 02:52:39;;;;;;;;;;;;;;;13.82;77.16;100838.59;4965756;28;1973;-76
2023/09/27 02:55:33;;;;;;;;;;;;;;;13.81;77.15;100847.78;4967583;28;2165;-77
2023/09/27 02:58:25;;;;;;;;;;;;;;;13.81;77.07;100840.50;4959473;28;4597;-77
2023/09/27 03:01:17;;;;;;;;;;;;;;;13.81;76.94;100845.09;4963542;28;2054;-78
2023/09/27 03:04:10;;;;;;;;;;;;;;;13.81;77.21;100842.38;4960366;28;2023;-76
2023/09/27 03:07:01;;;;;;;;;;;;;;;13.80;77.17;100848.88;4960962;28;2121;-76
2023/09/27 03:09:53;;;;;;;;;;;;;;;13.81;76.90;100847.78;4964873;28;2312;-77
2023/09/27 03:12:45;;;;;;;;;;;;;;;13.81;77.06;100845.09;4962925;28;2252;-77
2023/09/27 03:15:37;;;;;;;;;;;;;;;13.80;77.08;100835.34;4966477;28;2282;-78
2023/09/27 03:18:29;;;;;;;;;;;;;;;13.79;76.98;100817.41;4961885;28;2371;-78
2023/09/27 03:21:21;;;;;;;;;;;;;;;13.79;77.03;100812.81;4967717;28;1975;-77
2023/09/27 03:24:13;;;;;;;;;;;;;;;13.79;77.09;100801.19;4966537;28;2040;-78
2023/09/27 03:27:07;;;;;;;;;;;;;;;13.78;76.89;100800.34;4965574;28;2074;-77
2023/09/27 03:29:59;;;;;;;;;;;;;;;13.79;77.01;100804.69;4964036;28;2449;-78
2023/09/27 03:32:51;;;;;;;;;;;;;;;13.78;76.88;100791.41;4966709;28;2360;-78
2023/09/27 03:35:43;;;;;;;;;;;;;;;13.77;76.95;100787.88;4964233;28;2003;-79
2023/09/27 03:38:36;;;;;;;;;;;;;;;13.77;76.98;100777.06;4965906;28;2287;-78
2023/09/27 03:41:28;;;;;;;;;;;;;;;13.78;77.08;100777.88;4968586;28;2049;-79
2023/09/27 03:44:19;;;;;;;;;;;;;;;13.77;77.05;100779.78;4965196;28;2070;-78
2023/09/27 03:47:11;;;;;;;;;;;;;;;13.77;76.85;100781.66;4967161;28;2333;-79
2023/09/27 03:50:03;;;;;;;;;;;;;;;13.77;77.05;100787.88;4963262;28;1770;-78
2023/09/27 03:52:55;;;;;;;;;;;;;;;13.77;76.85;100800.59;4966165;28;2310;-76
2023/09/27 03:55:46;;;;;;;;;;;;;;;13.77;76.91;100797.91;4961802;28;1987;-77
2023/09/27 03:58:38;;;;;;;;;;;;;;;13.76;76.93;100785.41;4963856;28;2283;-80
2023/09/27 04:01:30;;;;;;;;;;;;;;;13.75;77.13;100779.19;4964151;28;2011;-77
2023/09/27 04:04:22;;;;;;;;;;;;;;;13.76;77.14;100782.69;4966931;28;2166;-79
2023/09/27 04:07:13;;;;;;;;;;;;;;;13.76;77.06;100774.56;4963759;28;2474;-78
2023/09/27 04:10:05;;;;;;;;;;;;;;;13.76;76.86;100772.69;4966416;28;2019;-79
2023/09/27 04:12:57;;;;;;;;;;;;;;;13.75;76.89;100771.06;4965511;28;2220;-79
2023/09/27 04:15:49;;;;;;;;;;;;;;;13.75;77.08;100776.47;4962407;28;2357;-77
2023/09/27 04:18:41;;;;;;;;;;;;;;;13.76;77.01;100782.69;4966731;28;2201;-78
2023/09/27 04:21:33;;;;;;;;;;;;;;;13.75;77.14;100787.28;4962778;28;1984;-80
2023/09/27 04:24:24;;;;;;;;;;;;;;;13.75;76.78;100776.47;4963243;28;1979;-79
2023/09/27 04:27:16;;;;;;;;;;;;;;;13.75;76.99;100773.75;4966118;28;2379;-79
2023/09/27 04:30:08;;;;;;;;;;;;;;;13.74;76.83;100782.94;4965243;28;2109;-76
2023/09/27 04:33:00;;;;;;;;;;;;;;;13.75;77.02;100787.28;4967200;28;2141;-78
2023/09/27 04:35:51;;;;;;;;;;;;;;;13.74;76.97;100782.94;4963357;28;2330;-77
2023/09/27 04:38:44;;;;;;;;;;;;;;;13.75;76.81;100772.94;4958325;28;5200;-76
2023/09/27 04:41:35;;;;;;;;;;;;;;;13.75;77.00;100743.97;4963991;28;2533;-78
2023/09/27 04:44:27;;;;;;;;;;;;;;;13.75;77.05;100745.88;4967465;28;2233;-78
2023/09/27 04:47:19;;;;;;;;;;;;;;;13.74;76.75;100720.69;4967835;28;2390;-79
2023/09/27 04:50:11;;;;;;;;;;;;;;;13.74;77.11;100719.88;4968421;28;2221;-77
2023/09/27 04:53:03;;;;;;;;;;;;;;;13.74;76.99;100715.28;4966555;28;2431;-80
2023/09/27 04:55:54;;;;;;;;;;;;;;;13.73;76.80;100710.91;4969046;28;2110;-78
2023/09/27 04:58:46;;;;;;;;;;;;;;;13.74;76.94;100709.88;4973465;28;1063;-77
2023/09/27 05:01:38;;;;;;;;;;;;;;;13.74;76.95;100720.69;4969117;28;2129;-78
2023/09/27 05:04:30;;;;;;;;;;;;;;;13.73;76.97;100721.72;4970743;28;2499;-76
2023/09/27 05:07:21;;;;;;;;;;;;;;;13.74;76.92;100728.00;4965802;28;2086;-77
2023/09/27 05:10:13;;;;;;;;;;;;;;;13.73;77.00;100737.16;4964618;28;1881;-77
2023/09/27 05:13:05;;;;;;;;;;;;;;;13.74;76.78;100765.88;4972155;28;2152;-76
2023/09/27 05:15:57;;;;;;;;;;;;;;;13.74;76.69;100774.00;4969550;28;954;-76
2023/09/27 05:18:49;;;;;;;;;;;;;;;13.73;76.82;100767.75;4966933;28;2524;-77
2023/09/27 05:21:40;;;;;;;;;;;;;;;13.73;76.81;100734.44;4964941;28;1958;-77
2023/09/27 05:24:38;;;;;;;;;;;;;;;13.73;76.89;100688.44;4970242;28;2361;-77
2023/09/27 05:27:30;;;;;;;;;;;;;;;13.73;76.92;100691.97;4972140;28;1004;-77
2023/09/27 05:30:22;;;;;;;;;;;;;;;13.74;76.93;100701.75;4968577;28;1718;-79
2023/09/27 05:33:13;;;;;;;;;;;;;;;13.73;76.93;100726.31;4971473;28;1778;-78
2023/09/27 05:36:05;;;;;;;;;;;;;;;13.73;76.75;100737.97;4965583;28;1105;-78
2023/09/27 05:38:53;;;;;;;;;;;;;;;13.74;76.94;100722.59;5131787;27;5523;-76
2023/09/27 05:41:44;;;;;;;;;;;;;;;13.73;76.79;100718.22;5115402;28;4096;-78
2023/09/27 05:44:37;;;;;;;;;;;;;;;13.72;76.76;100720.09;5114372;28;2512;-79
2023/09/27 05:47:29;;;;;;;;;;;;;;;13.73;76.91;100737.97;5109523;28;5378;-79
2023/09/27 05:50:20;;;;;;;;;;;;;;;13.73;76.80;100718.22;5111622;28;2294;-76
2023/09/27 05:53:12;;;;;;;;;;;;;;;13.71;76.89;100707.63;5108539;28;3340;-76
2023/09/27 05:56:04;;;;;;;;;;;;;;;13.73;76.77;100723.63;5110302;28;5135;-75
2023/09/27 05:58:59;;;;;;;;;;;;;;;13.73;76.75;100712.78;5112079;28;2057;-77
2023/09/27 06:01:51;;;;;;;;;;;;;;;13.72;76.71;100713.88;5106071;28;5298;-77
2023/09/27 06:04:42;;;;;;;;;;;;;;;13.37;76.85;100644.34;5110076;28;2195;-76
2023/09/27 06:07:34;;;;;;;;;;;;;;;13.72;76.86;100690.31;5118220;28;1490;-78
2023/09/27 06:10:26;;;;;;;;;;;;;;;13.73;76.99;100685.72;5112226;28;2267;-76
2023/09/27 06:13:23;;;;;;;;;;;;;;;13.73;76.90;100680.31;5114787;28;2540;-77
2023/09/27 06:16:16;;;;;;;;;;;;;;;13.71;76.91;100680.56;5116126;28;2105;-77
2023/09/27 06:19:09;;;;;;;;;;;;;;;13.71;76.71;100680.56;5114346;28;1044;-76
2023/09/27 06:22:00;;;;;;;;;;;;;;;13.72;76.91;100670.56;5116039;28;2227;-79
2023/09/27 06:24:52;;;;;;;;;;;;;;;13.73;76.93;100677.59;5107587;28;2195;-79
2023/09/27 06:27:44;;;;;;;;;;;;;;;13.72;76.90;100684.91;5099881;28;4636;-77
2023/09/27 06:30:36;;;;;;;;;;;;;;;13.72;76.83;100671.38;5113956;28;961;-77
2023/09/27 06:33:28;;;;;;;;;;;;;;;13.71;76.86;100669.75;5111482;28;2540;-79
2023/09/27 06:36:21;;;;;;;;;;;;;;;13.72;76.78;100684.09;5115711;28;2151;-76
2023/09/27 06:39:13;;;;;;;;;;;;;;;13.71;76.87;100691.41;5109323;28;1773;-77
2023/09/27 06:42:06;;;;;;;;;;;;;;;13.72;76.89;100703.03;5115030;28;2151;-78
2023/09/27 06:44:58;;;;;;;;;;;;;;;13.72;76.99;100705.75;5105647;28;4813;-78
2023/09/27 06:47:50;;;;;;;;;;;;;;;13.71;76.77;100714.94;5112890;28;1593;-77
2023/09/27 06:50:42;;;;;;;;;;;;;;;13.71;76.92;100729.28;5098059;28;2347;-77
2023/09/27 06:53:34;;;;;;;;;;;;;;;13.71;76.70;100707.63;5096420;28;1784;-77
2023/09/27 06:56:26;;;;;;;;;;;;;;;13.71;76.76;100702.22;5097779;28;2285;-77
2023/09/27 06:59:18;;;;;;;;;;;;;;;13.72;76.77;100711.97;5105390;28;2298;-76
2023/09/27 07:02:10;;;;;;;;;;;;;;;13.72;76.90;100725.50;5091067;28;4718;-77
2023/09/27 07:05:02;;;;;;;;;;;;;;;13.72;76.93;100746.34;5101300;28;2108;-75
2023/09/27 07:07:54;;;;;;;;;;;;;;;13.72;76.91;100720.09;5098632;28;3206;-76
2023/09/27 07:10:46;;;;;;;;;;;;;;;13.72;77.10;100659.72;5099987;28;3278;-78
2023/09/27 07:13:38;;;;;;;;;;;;;;;13.71;76.92;100690.56;5095534;28;1836;-78
2023/09/27 07:16:30;;;;;;;;;;;;;;;13.75;80.00;100665.50;5100418;28;1946;-77
2023/09/27 07:19:23;;;;;;;;;;;;;;;13.77;82.47;100657.16;5095628;28;2109;-78
2023/09/27 07:22:15;;;;;;;;;;;;;;;13.74;79.57;100688.22;5089824;28;5094;-78
2023/09/27 07:25:12;;;;;;;;;;;;;;;13.74;78.61;100709.06;5098449;28;2155;-78
2023/09/27 07:28:05;;;;;;;;;;;;;;;13.74;78.39;100728.81;5093554;28;2258;-76
2023/09/27 07:30:57;;;;;;;;;;;;;;;13.74;78.12;100736.94;5104967;28;2085;-76
2023/09/27 07:33:52;;;;;;;;;;;;;;;13.74;78.22;100746.94;5099869;28;1102;-76
2023/09/27 07:36:44;;;;;;;;;;;;;;;13.75;78.15;100748.59;5091151;28;2214;-77
2023/09/27 07:39:37;;;;;;;;;;;;;;;13.74;77.97;100728.81;5105834;28;1918;-78
2023/09/27 07:42:29;;;;;;;;;;;;;;;13.74;77.83;100714.47;5100374;28;1767;-77
2023/09/27 07:45:28;;;;;;;;;;;;;;;13.74;77.86;100698.22;5099969;28;2084;-77
2023/09/27 07:48:21;;;;;;;;;;;;;;;13.74;77.90;100709.88;5101850;28;1163;-77
2023/09/27 07:51:12;;;;;;;;;;;;;;;13.74;77.95;100714.47;5099392;28;1929;-75
2023/09/27 07:54:07;;;;;;;;;;;;;;;13.74;77.85;100693.63;5097494;28;2159;-77
2023/09/27 07:56:59;;;;;;;;;;;;;;;13.75;77.87;100699.84;5097512;28;2055;-76
2023/09/27 07:59:50;;;;;;;;;;;;;;;13.74;77.92;100709.06;5104570;28;1034;-76
2023/09/27 08:02:42;;;;;;;;;;;;;;;13.74;77.81;100707.16;5103137;28;2124;-76
2023/09/27 08:05:42;;;;;;;;;;;;;;;13.74;77.80;100726.09;5093652;28;2038;-76
2023/09/27 08:08:34;;;;;;;;;;;;;;;13.74;77.92;100731.53;5105804;28;990;-77
2023/09/27 08:11:26;;;;;;;;;;;;;;;13.73;77.97;100723.63;5095329;28;2207;-78
2023/09/27 08:14:19;;;;;;;;;;;;;;;13.75;78.06;100721.50;5092081;28;2909;-78
2023/09/27 08:17:11;;;;;;;;;;;;;;;13.74;78.09;100718.00;5099625;28;2180;-77
2023/09/27 08:20:05;;;;;;;;;;;;;;;13.74;78.14;100718.00;5094595;28;1280;-78
2023/09/27 08:22:56;;;;;;;;;;;;;;;13.75;78.10;100721.50;5095530;28;2359;-77
2023/09/27 08:25:49;;;;;;;;;;;;;;;13.74;78.03;100712.56;5090492;28;2443;-78
2023/09/27 08:28:41;;;;;;;;;;;;;;;13.74;78.03;100717.16;5097635;28;2303;-78
2023/09/27 08:31:36;;;;;;;;;;;;;;;13.74;77.88;100726.09;5093534;28;2311;-78
2023/09/27 08:34:27;;;;;;;;;;;;;;;13.73;77.88;100721.72;5089188;28;2081;-79
2023/09/27 08:37:19;;;;;;;;;;;;;;;13.74;77.92;100728.81;5093178;28;2296;-77
2023/09/27 08:40:13;;;;;;;;;;;;;;;13.75;78.08;100732.34;5094835;28;2191;-79
2023/09/27 08:43:05;;;;;;;;;;;;;;;13.74;77.98;100720.69;5094369;28;2049;-79
2023/09/27 08:45:57;;;;;;;;;;;;;;;13.75;78.13;100707.97;5087443;28;2685;-78
2023/09/27 08:48:49;;;;;;;;;;;;;;;13.74;78.08;100712.56;5087678;28;4401;-78
2023/09/27 08:51:41;;;;;;;;;;;;;;;13.75;78.05;100691.75;5080136;28;5483;-78
2023/09/27 08:54:32;;;;;;;;;;;;;;;13.75;77.88;100711.50;5085728;28;4433;-78
2023/09/27 08:57:24;;;;;;;;;;;;;;;13.75;77.87;100713.41;5093280;28;4248;-77
2023/09/27 09:00:19;;;;;;;;;;;;;;;13.75;77.99;100716.91;5088085;28;2521;-76
2023/09/27 09:03:11;;;;;;;;;;;;;;;13.74;77.97;100715.28;5089257;28;2721;-75
2023/09/27 09:06:04;;;;;;;;;;;;;;;13.75;78.08;100718.81;5089980;28;4126;-75
2023/09/27 09:08:56;;;;;;;;;;;;;;;13.75;78.03;100725.03;5085273;28;2676;-77
2023/09/27 09:11:48;;;;;;;;;;;;;;;13.75;77.62;100725.03;5096627;28;2771;-76
2023/09/27 09:14:42;;;;;;;;;;;;;;;13.75;78.03;100729.63;5098175;28;2547;-78
2023/09/27 09:17:34;;;;;;;;;;;;;;;13.75;77.83;100732.34;5089628;28;2562;-78
2023/09/27 09:20:32;;;;;;;;;;;;;;;13.75;78.00;100722.34;5089302;28;2775;-77
2023/09/27 09:23:24;;;;;;;;;;;;;;;13.75;77.89;100730.44;5095475;28;2554;-77
2023/09/27 09:26:15;;;;;;;;;;;;;;;13.76;78.06;100729.38;5090692;28;2995;-78
2023/09/27 09:29:07;;;;;;;;;;;;;;;13.76;77.98;100732.09;5096731;28;2618;-77
2023/09/27 09:31:59;;;;;;;;;;;;;;;13.77;77.99;100738.34;5093241;28;2485;-77
2023/09/27 09:34:51;;;;;;;;;;;;;;;13.76;77.93;100737.50;5093491;28;2408;-77
2023/09/27 09:37:43;;;;;;;;;;;;;;;13.77;77.85;100738.34;5090206;28;2349;-77
2023/09/27 09:40:35;;;;;;;;;;;;;;;13.77;77.77;100739.16;5096458;28;2310;-78
2023/09/27 09:43:27;;;;;;;;;;;;;;;13.77;77.65;100739.16;5097337;28;2176;-77
2023/09/27 09:46:20;;;;;;;;;;;;;;;13.77;77.76;100735.66;5093626;28;2280;-76
2023/09/27 09:49:11;;;;;;;;;;;;;;;13.77;77.58;100741.88;5091788;28;2255;-78
2023/09/27 09:52:03;;;;;;;;;;;;;;;13.79;77.52;100738.91;5100295;28;2238;-77
2023/09/27 09:54:55;;;;;;;;;;;;;;;13.79;77.70;100736.22;5088254;28;2311;-78
2023/09/27 09:57:46;;;;;;;;;;;;;;;13.79;77.68;100733.50;5092977;28;3570;-78
2023/09/27 10:00:39;;;;;;;;;;;;;;;13.79;77.66;100731.63;5095901;28;2212;-77
2023/09/27 10:03:30;;;;;;;;;;;;;;;13.79;77.54;100736.22;5091562;28;3688;-75
2023/09/27 10:06:22;;;;;;;;;;;;;;;13.78;77.55;100737.28;5087148;28;3507;-77
2023/09/27 10:09:14;;;;;;;;;;;;;;;13.78;77.33;100743.50;5095142;28;2233;-75
2023/09/27 10:12:06;;;;;;;;;;;;;;;13.80;77.47;100743.28;5083581;28;5425;-77
2023/09/27 10:14:58;;;;;;;;;;;;;;;13.80;77.41;100748.69;5093001;28;2292;-77
2023/09/27 10:17:52;;;;;;;;;;;;;;;13.80;77.40;100740.59;5096962;28;2044;-78
2023/09/27 10:20:44;;;;;;;;;;;;;;;13.80;77.30;100743.28;5090959;28;2242;-76
2023/09/27 10:23:36;;;;;;;;;;;;;;;13.80;77.33;100748.69;5089640;28;2220;-75
2023/09/27 10:26:28;;;;;;;;;;;;;;;13.81;77.39;100745.75;5099785;28;2121;-78
2023/09/27 10:29:21;;;;;;;;;;;;;;;13.81;77.32;100736.81;5105980;28;2116;-76
2023/09/27 10:32:12;;;;;;;;;;;;;;;13.81;77.47;100740.34;5105093;28;2393;-77
2023/09/27 10:35:04;;;;;;;;;;;;;;;13.81;77.47;100740.34;5094636;28;2136;-76
2023/09/27 10:37:56;;;;;;;;;;;;;;;13.82;77.26;100738.44;5104770;28;1914;-77
2023/09/27 10:40:48;;;;;;;;;;;;;;;13.82;77.28;100736.59;5085012;28;5909;-76
2023/09/27 10:43:40;;;;;;;;;;;;;;;13.82;77.53;100728.47;5095681;28;3652;-77
2023/09/27 10:46:32;;;;;;;;;;;;;;;13.83;77.27;100734.69;5101932;28;3956;-78
2023/09/27 10:49:24;;;;;;;;;;;;;;;13.83;77.53;100734.69;5100711;28;2437;-76
2023/09/27 10:52:16;;;;;;;;;;;;;;;13.82;77.44;100744.72;5096730;28;2142;-78
2023/09/27 10:55:07;;;;;;;;;;;;;;;13.83;77.52;100754.47;5097582;28;2191;-76
2023/09/27 10:57:59;;;;;;;;;;;;;;;13.84;77.52;100747.97;5094457;28;5383;-75
2023/09/27 11:00:51;;;;;;;;;;;;;;;13.84;77.43;100747.16;5100876;28;2346;-76
2023/09/27 11:03:43;;;;;;;;;;;;;;;13.84;77.21;100739.84;5100996;28;975;-77
2023/09/27 11:06:35;;;;;;;;;;;;;;;13.85;77.43;100746.09;5107604;28;894;-77
2023/09/27 11:09:27;;;;;;;;;;;;;;;13.85;77.46;100746.94;5093206;28;2176;-78
2023/09/27 11:12:19;;;;;;;;;;;;;;;13.86;77.30;100745.03;5102856;28;2066;-77
2023/09/27 11:15:10;;;;;;;;;;;;;;;13.87;77.44;100743.97;5097090;28;2156;-78
2023/09/27 11:18:02;;;;;;;;;;;;;;;13.86;77.22;100748.56;5079351;28;6288;-76
2023/09/27 11:20:55;;;;;;;;;;;;;;;13.87;77.30;100749.41;5108598;28;2287;-77
2023/09/27 11:23:46;;;;;;;;;;;;;;;13.88;77.31;100747.50;5100855;28;2196;-78
2023/09/27 11:26:38;;;;;;;;;;;;;;;13.88;77.31;100752.91;5080997;28;5921;-77
2023/09/27 11:29:30;;;;;;;;;;;;;;;13.89;77.45;100751.88;5092342;28;2293;-77
2023/09/27 11:32:22;;;;;;;;;;;;;;;13.89;77.28;100752.69;5101138;28;4363;-76
2023/09/27 11:35:14;;;;;;;;;;;;;;;13.89;77.52;100749.16;5101674;28;2270;-76
2023/09/27 11:38:05;;;;;;;;;;;;;;;13.90;77.54;100743.50;5096427;28;2287;-76
2023/09/27 11:41:00;;;;;;;;;;;;;;;13.89;77.37;100744.56;5090472;28;5494;-77
2023/09/27 11:43:55;;;;;;;;;;;;;;;13.91;77.64;100749.75;5099052;28;991;-78
2023/09/27 11:46:47;;;;;;;;;;;;;;;13.91;77.46;100742.44;5091320;28;2053;-76
2023/09/27 11:49:38;;;;;;;;;;;;;;;13.92;77.55;100732.44;5104609;28;2314;-77
2023/09/27 11:52:30;;;;;;;;;;;;;;;13.92;77.38;100743.28;5096239;28;2221;-78
2023/09/27 11:55:22;;;;;;;;;;;;;;;13.93;77.47;100740.31;5092555;28;1932;-77
2023/09/27 11:58:15;;;;;;;;;;;;;;;13.93;77.58;100731.38;5090378;28;2012;-77
2023/09/27 12:01:07;;;;;;;;;;;;;;;13.94;77.55;100733.00;5102721;28;2199;-77
2023/09/27 12:03:59;;;;;;;;;;;;;;;13.95;77.68;100740.09;5106487;28;946;-78
2023/09/27 12:06:51;;;;;;;;;;;;;;;13.94;77.62;100752.81;5103937;28;1781;-78
2023/09/27 12:09:42;;;;;;;;;;;;;;;13.95;77.49;100757.16;5079934;28;5418;-78
2023/09/27 12:12:34;;;;;;;;;;;;;;;13.97;77.41;100754.19;5095912;28;2101;-76
2023/09/27 12:15:26;;;;;;;;;;;;;;;13.96;77.84;100755.28;5106350;28;2327;-76
2023/09/27 12:18:18;;;;;;;;;;;;;;;13.97;77.85;100756.91;5102111;28;1952;-79
2023/09/27 12:21:09;;;;;;;;;;;;;;;13.97;77.70;100757.75;5097951;28;1943;-78
2023/09/27 12:24:01;;;;;;;;;;;;;;;13.99;77.89;100762.91;5083617;28;2772;-77
2023/09/27 12:26:53;;;;;;;;;;;;;;;13.99;77.67;100752.09;5080559;28;5333;-76
2023/09/27 12:29:45;;;;;;;;;;;;;;;14.00;77.72;100748.31;5097255;28;1679;-79
2023/09/27 12:32:37;;;;;;;;;;;;;;;13.99;77.66;100750.19;5097338;28;2524;-76
2023/09/27 12:35:29;;;;;;;;;;;;;;;14.02;77.81;100747.00;5095634;28;3559;-78
2023/09/27 12:38:22;;;;;;;;;;;;;;;14.01;77.68;100745.38;5092745;28;2010;-77
2023/09/27 12:41:14;;;;;;;;;;;;;;;14.02;77.94;100741.59;5099062;28;2463;-78
2023/09/27 12:44:06;;;;;;;;;;;;;;;14.02;77.77;100736.19;5092990;28;5397;-78
2023/09/27 12:46:58;;;;;;;;;;;;;;;14.04;77.87;100735.97;5091269;28;2271;-78
2023/09/27 12:49:49;;;;;;;;;;;;;;;14.04;77.93;100733.25;5097303;28;997;-77
2023/09/27 12:52:41;;;;;;;;;;;;;;;14.05;78.14;100740.31;5079731;28;5780;-78
2023/09/27 12:55:33;;;;;;;;;;;;;;;14.05;77.84;100738.41;5110343;28;898;-78
2023/09/27 12:58:25;;;;;;;;;;;;;;;14.06;77.87;100739.25;5105771;28;1882;-78
2023/09/27 13:01:17;;;;;;;;;;;;;;;14.06;77.89;100742.78;5098824;28;2225;-77
2023/09/27 13:04:09;;;;;;;;;;;;;;;14.07;78.10;100747.13;5099275;28;2034;-78
2023/09/27 13:07:01;;;;;;;;;;;;;;;14.09;77.96;100749.63;5096701;28;2107;-78
2023/09/27 13:09:53;;;;;;;;;;;;;;;14.09;77.98;100746.91;5091041;28;2317;-75
2023/09/27 13:12:45;;;;;;;;;;;;;;;13.84;78.12;100706.56;5098357;28;2117;-76
2023/09/27 13:15:37;;;;;;;;;;;;;;;14.12;78.01;100748.28;5089716;28;2060;-78
2023/09/27 13:18:29;;;;;;;;;;;;;;;14.12;77.91;100742.88;5092820;28;3764;-80
2023/09/27 13:21:21;;;;;;;;;;;;;;;14.14;77.89;100740.75;5094764;28;2995;-77
2023/09/27 13:24:13;;;;;;;;;;;;;;;14.14;77.86;100741.56;5098196;28;2130;-79
2023/09/27 13:27:05;;;;;;;;;;;;;;;14.16;78.08;100738.66;5094230;28;2126;-78
2023/09/27 13:29:57;;;;;;;;;;;;;;;14.16;78.11;100746.78;5098260;28;2246;-76
2023/09/27 13:32:49;;;;;;;;;;;;;;;14.16;78.08;100744.88;5094869;28;2157;-79
2023/09/27 13:35:41;;;;;;;;;;;;;;;14.19;78.16;100743.59;5100781;28;1331;-77
2023/09/27 13:38:33;;;;;;;;;;;;;;;14.19;78.11;100738.16;5093844;28;2137;-78
2023/09/27 13:41:25;;;;;;;;;;;;;;;14.19;78.33;100744.41;5090031;28;3683;-77
2023/09/27 13:44:17;;;;;;;;;;;;;;;14.21;78.29;100742.28;5098073;28;2070;-77
2023/09/27 13:47:08;;;;;;;;;;;;;;;14.21;78.42;100736.88;5100071;28;2168;-79
2023/09/27 13:50:00;;;;;;;;;;;;;;;14.22;78.34;100738.50;5096165;28;2145;-77
2023/09/27 13:52:52;;;;;;;;;;;;;;;14.23;78.43;100732.00;5101093;28;1768;-79
2023/09/27 13:55:44;;;;;;;;;;;;;;;14.24;78.31;100725.56;5093500;28;2058;-77
2023/09/27 13:58:39;;;;;;;;;;;;;;;14.25;78.39;100731.78;5100125;28;1963;-78
2023/09/27 14:01:30;;;;;;;;;;;;;;;14.27;78.46;100743.22;5092180;28;2148;-78
2023/09/27 14:04:22;;;;;;;;;;;;;;;14.26;78.54;100738.84;5100017;28;2090;-77
2023/09/27 14:07:13;;;;;;;;;;;;;;;14.28;78.35;100736.72;5100367;28;2130;-75
2023/09/27 14:10:05;;;;;;;;;;;;;;;14.28;78.35;100744.84;5100519;28;2124;-77
2023/09/27 14:12:59;;;;;;;;;;;;;;;14.29;78.35;100741.06;5101178;28;2081;-78
2023/09/27 14:15:51;;;;;;;;;;;;;;;14.30;78.50;100742.75;5102948;28;2200;-77
2023/09/27 14:18:43;;;;;;;;;;;;;;;14.31;78.50;100736.25;5105200;28;2106;-77
2023/09/27 14:21:35;;;;;;;;;;;;;;;14.32;78.40;100746.00;5105550;28;1579;-77
2023/09/27 14:24:28;;;;;;;;;;;;;;;14.33;78.55;100755.81;5093347;28;2103;-75
2023/09/27 14:27:19;;;;;;;;;;;;;;;14.34;78.55;100757.44;5096152;28;2218;-75
2023/09/27 14:30:10;;;;;;;;;;;;;;;14.34;78.59;100751.19;5103193;28;1785;-77
2023/09/27 14:33:02;;;;;;;;;;;;;;;14.35;78.59;100753.66;5101172;28;1821;-76
2023/09/27 14:35:54;;;;;;;;;;;;;;;14.35;78.59;100759.06;5106221;28;1377;-77
2023/09/27 14:38:46;;;;;;;;;;;;;;;14.37;78.52;100758.84;5098009;28;2015;-75
2023/09/27 14:41:41;;;;;;;;;;;;;;;14.38;78.42;100761.31;5094861;28;2213;-79
2023/09/27 14:44:33;;;;;;;;;;;;;;;14.38;78.67;100761.31;5095257;28;2225;-76
2023/09/27 14:47:25;;;;;;;;;;;;;;;14.39;78.58;100765.69;5106061;28;2145;-75
2023/09/27 14:50:17;;;;;;;;;;;;;;;14.41;78.62;100777.13;5104248;28;1929;-78
2023/09/27 14:53:08;;;;;;;;;;;;;;;14.41;78.74;100776.25;5088526;28;5316;-79
2023/09/27 14:56:00;;;;;;;;;;;;;;;14.42;78.79;100778.75;5094273;28;2069;-75